Time;durP1;ratioP1;P1;durP2;ratioP2;P2;SDS_P1;SDS_P2;PMS_P1;PMS_P2;Temp;Humidity;BMP_temperature;BMP_pressure;BME280_temperature;BME280_humidity;BME280_pressure;Samples;Min_cycle;Max_cycle;Signal;HPM_P1;HPM_P2
2021/10/31 00:01:41;;;;;;;18.10;9.88;;;11.90;99.30;;;;;;5054167;28;20115;-76
2021/10/31 00:04:07;;;;;;;17.45;10.65;;;11.80;99.30;;;;;;5052809;28;20029;-76
2021/10/31 00:06:32;;;;;;;19.48;10.20;;;11.80;99.30;;;;;;5054408;28;20029;-76
2021/10/31 00:08:58;;;;;;;19.50;10.65;;;11.80;99.40;;;;;;5052755;28;20178;-77
2021/10/31 00:11:23;;;;;;;17.67;10.60;;;11.80;99.40;;;;;;5061816;28;20190;-77
2021/10/31 00:13:49;;;;;;;18.33;10.80;;;11.80;99.40;;;;;;5055782;28;20036;-76
2021/10/31 00:16:15;;;;;;;19.25;10.18;;;11.80;99.40;;;;;;5073961;28;20430;-77
2021/10/31 00:18:41;;;;;;;17.27;9.50;;;11.70;99.40;;;;;;5073843;28;20032;-77
2021/10/31 00:21:07;;;;;;;19.42;11.35;;;11.70;99.40;;;;;;5072614;28;20405;-77
2021/10/31 00:23:33;;;;;;;17.00;9.65;;;11.70;99.40;;;;;;5073726;28;20037;-76
2021/10/31 00:25:59;;;;;;;17.67;9.13;;;11.70;99.40;;;;;;5072543;28;20040;-77
2021/10/31 00:28:25;;;;;;;17.63;9.75;;;11.70;99.40;;;;;;5072036;28;20120;-77
2021/10/31 00:30:51;;;;;;;20.15;9.65;;;11.60;99.40;;;;;;5073499;28;20433;-76
2021/10/31 00:33:17;;;;;;;19.15;9.75;;;11.60;99.40;;;;;;5072289;28;20051;-76
2021/10/31 00:35:42;;;;;;;16.48;9.77;;;11.70;99.40;;;;;;5072587;28;20449;-76
2021/10/31 00:38:08;;;;;;;14.68;8.23;;;11.60;99.40;;;;;;5073634;28;20013;-76
2021/10/31 00:40:34;;;;;;;15.25;9.13;;;11.60;99.40;;;;;;5072288;28;20032;-76
2021/10/31 00:43:00;;;;;;;16.10;9.70;;;11.60;99.50;;;;;;5073619;28;20094;-76
2021/10/31 00:45:26;;;;;;;16.90;9.60;;;11.60;99.50;;;;;;5070591;28;20063;-76
2021/10/31 00:47:54;;;;;;;18.23;9.45;;;11.50;99.40;;;;;;5072121;28;20035;-75
2021/10/31 00:50:21;;;;;;;20.53;10.27;;;11.60;99.50;;;;;;5071978;28;20401;-76
2021/10/31 00:52:47;;;;;;;16.83;9.02;;;11.60;99.50;;;;;;5073046;28;20028;-76
2021/10/31 00:55:15;;;;;;;17.60;9.63;;;11.60;99.50;;;;;;5073360;28;20025;-76
2021/10/31 00:57:41;;;;;;;18.88;9.98;;;11.50;99.50;;;;;;5055606;28;20078;-76
2021/10/31 01:00:10;;;;;;;17.80;9.88;;;11.50;99.50;;;;;;5071919;28;20025;-76
2021/10/31 01:02:36;;;;;;;25.27;10.20;;;11.50;99.40;;;;;;5051956;28;20037;-76
2021/10/31 01:05:05;;;;;;;18.88;10.88;;;11.50;99.50;;;;;;5051984;28;20057;-76
2021/10/31 01:07:52;;;;;;;19.80;10.00;;;11.40;99.70;;;;;;5053091;28;20396;-76
2021/10/31 01:10:27;;;;;;;19.47;10.00;;;11.40;99.50;;;;;;5053090;28;20025;-76
2021/10/31 01:13:05;;;;;;;17.65;9.43;;;11.40;99.50;;;;;;5051760;28;20389;-76
2021/10/31 01:15:55;;;;;;;17.45;10.20;;;11.40;99.50;;;;;;5053051;28;20071;-76
2021/10/31 01:18:38;;;;;;;17.73;10.27;;;11.40;99.50;;;;;;5052169;28;20107;-76
2021/10/31 01:21:17;;;;;;;17.35;9.90;;;11.40;99.50;;;;;;5051639;28;20048;-76
2021/10/31 01:23:59;;;;;;;18.60;9.90;;;11.40;99.50;;;;;;5051809;28;20547;-76
2021/10/31 01:27:05;;;;;;;15.33;9.27;;;11.30;99.50;;;;;;5053097;28;20033;-76
2021/10/31 01:29:55;;;;;;;15.90;9.73;;;11.30;99.60;;;;;;5052889;28;20029;-76
2021/10/31 01:32:39;;;;;;;15.90;9.50;;;11.30;99.50;;;;;;5053015;28;20384;-76
2021/10/31 01:35:41;;;;;;;19.48;9.45;;;11.30;99.50;;;;;;5054127;28;20051;-77
2021/10/31 01:38:34;;;;;;;17.88;9.63;;;11.30;99.50;;;;;;5052904;28;20071;-76
2021/10/31 01:41:21;;;;;;;18.60;9.03;;;11.20;99.50;;;;;;5052867;28;20029;-76
2021/10/31 01:43:53;;;;;;;15.73;9.10;;;11.20;99.50;;;;;;5051641;28;20052;-75
2021/10/31 01:46:37;;;;;;;17.95;10.35;;;11.20;99.50;;;;;;5052714;28;20072;-76
2021/10/31 01:49:09;;;;;;;;;;;11.20;99.50;;;;;;5051891;28;20021;-75
2021/10/31 01:51:54;;;;;;;19.57;9.10;;;11.20;99.50;;;;;;5055243;28;19913;-76
2021/10/31 01:54:25;;;;;;;16.10;8.57;;;11.10;99.50;;;;;;5072924;28;20380;-76
2021/10/31 01:56:54;;;;;;;16.03;9.20;;;11.10;99.50;;;;;;5071403;28;20086;-76
2021/10/31 01:59:25;;;;;;;19.03;9.57;;;11.10;99.50;;;;;;5072624;28;20017;-77
2021/10/31 02:01:52;;;;;;;14.50;9.00;;;11.10;99.50;;;;;;5072739;28;20094;-77
2021/10/31 02:04:20;;;;;;;18.23;9.30;;;11.10;99.60;;;;;;5072735;28;20146;-77
2021/10/31 02:06:50;;;;;;;16.33;9.83;;;11.10;99.50;;;;;;5072676;28;20017;-77
2021/10/31 02:09:20;;;;;;;17.40;9.77;;;11.00;99.50;;;;;;5063249;28;20025;-77
2021/10/31 02:11:47;;;;;;;18.53;9.33;;;11.00;99.60;;;;;;5052565;28;20462;-78
2021/10/31 02:14:14;;;;;;;20.50;9.37;;;11.00;99.90;;;;;;5034605;28;20424;-76
2021/10/31 02:16:41;;;;;;;20.63;10.33;;;11.00;99.60;;;;;;5053312;28;20071;-77
2021/10/31 02:19:15;;;;;;;17.23;9.43;;;11.00;99.60;;;;;;5038379;28;20049;-77
2021/10/31 02:21:41;;;;;;;22.55;10.20;;;11.00;99.70;;;;;;5056124;28;20029;-77
2021/10/31 02:24:08;;;;;;;15.83;9.07;;;11.00;99.70;;;;;;5054908;28;20121;-77
2021/10/31 02:26:38;;;;;;;19.00;9.67;;;11.00;99.70;;;;;;5071475;28;20111;-78
2021/10/31 02:29:08;;;;;;;15.40;8.85;;;11.00;99.80;;;;;;5054803;28;20039;-78
2021/10/31 02:31:35;;;;;;;18.30;9.23;;;10.90;99.70;;;;;;5056074;28;20036;-77
2021/10/31 02:34:01;;;;;;;21.33;9.93;;;10.90;99.70;;;;;;5055867;28;20481;-77
2021/10/31 02:36:27;;;;;;;19.17;8.70;;;10.90;99.80;;;;;;5039524;28;20396;-76
2021/10/31 02:38:52;;;;;;;21.20;9.97;;;10.90;99.80;;;;;;5054564;28;20025;-76
2021/10/31 02:41:18;;;;;;;18.17;9.80;;;10.90;99.80;;;;;;5054936;28;20182;-76
2021/10/31 02:43:44;;;;;;;21.33;10.87;;;10.90;99.80;;;;;;5055679;28;20350;-77
2021/10/31 02:46:09;;;;;;;17.93;9.10;;;10.90;99.80;;;;;;5054519;28;20032;-76
2021/10/31 02:48:37;;;;;;;15.97;9.90;;;10.90;99.90;;;;;;5054555;28;20055;-76
2021/10/31 02:51:29;;;;;;;17.40;10.10;;;10.90;99.90;;;;;;5055914;28;20029;-77
2021/10/31 02:54:06;;;;;;;17.77;9.57;;;10.90;99.90;;;;;;5050027;28;20057;-78
2021/10/31 02:56:44;;;;;;;15.33;7.87;;;10.90;99.90;;;;;;5055529;28;20382;-78
2021/10/31 02:59:33;;;;;;;20.00;9.30;;;10.80;99.90;;;;;;5061889;28;20066;-77
2021/10/31 03:02:00;;;;;;;16.57;8.67;;;10.90;99.90;;;;;;5070207;28;20477;-78
2021/10/31 03:04:27;;;;;;;21.10;10.50;;;10.90;99.90;;;;;;5057712;28;20061;-77
2021/10/31 03:06:57;;;;;;;19.67;10.03;;;10.90;99.90;;;;;;5075707;28;20486;-77
2021/10/31 03:09:22;;;;;;;19.63;10.10;;;10.90;99.90;;;;;;5075694;28;20530;-77
2021/10/31 03:11:48;;;;;;;16.50;10.18;;;10.90;99.90;;;;;;5074572;28;20174;-77
2021/10/31 03:14:14;;;;;;;20.20;10.07;;;10.90;99.90;;;;;;5074357;28;20029;-76
2021/10/31 03:16:40;;;;;;;18.47;9.23;;;10.90;99.90;;;;;;5074262;28;20487;-77
2021/10/31 03:19:05;;;;;;;17.37;9.27;;;10.90;99.90;;;;;;5057372;28;20082;-75
2021/10/31 03:21:31;;;;;;;19.10;8.57;;;10.90;99.90;;;;;;5072170;28;20054;-76
2021/10/31 03:23:57;;;;;;;15.73;9.20;;;10.90;99.90;;;;;;5072768;28;20020;-76
2021/10/31 03:26:23;;;;;;;15.83;8.67;;;10.90;99.90;;;;;;5053533;28;20473;-77
2021/10/31 03:28:48;;;;;;;19.05;9.55;;;10.90;99.90;;;;;;5052733;28;20029;-78
2021/10/31 03:31:14;;;;;;;13.93;8.63;;;10.90;99.90;;;;;;5054007;28;20021;-78
2021/10/31 03:33:40;;;;;;;13.57;9.07;;;11.00;99.90;;;;;;5053957;28;20139;-80
2021/10/31 03:36:05;;;;;;;18.70;9.90;;;10.90;99.90;;;;;;5053981;28;20354;-76
2021/10/31 03:38:31;;;;;;;19.73;9.43;;;10.90;99.90;;;;;;5053973;28;20029;-78
2021/10/31 03:40:56;;;;;;;20.38;10.48;;;10.90;99.90;;;;;;5055217;28;20068;-76
2021/10/31 03:43:22;;;;;;;17.77;11.03;;;10.90;99.90;;;;;;5054567;28;20025;-77
2021/10/31 03:45:50;;;;;;;18.57;9.97;;;10.90;99.90;;;;;;5056880;28;20020;-79
2021/10/31 03:48:16;;;;;;;13.43;8.37;;;10.90;99.90;;;;;;5072992;28;20028;-77
2021/10/31 03:50:41;;;;;;;19.23;10.57;;;10.90;99.90;;;;;;5073019;28;20037;-78
2021/10/31 03:53:07;;;;;;;16.17;9.23;;;10.90;99.90;;;;;;5072872;28;20388;-77
2021/10/31 03:55:33;;;;;;;17.80;10.20;;;11.00;99.90;;;;;;5074496;28;20029;-77
2021/10/31 03:57:58;;;;;;;17.65;9.60;;;11.00;99.90;;;;;;5072386;28;20025;-78
2021/10/31 04:00:24;;;;;;;19.95;9.65;;;11.00;99.90;;;;;;5053238;28;20033;-79
2021/10/31 04:02:50;;;;;;;20.10;10.83;;;11.00;99.90;;;;;;5053140;28;20108;-78
2021/10/31 04:05:16;;;;;;;18.47;10.33;;;11.10;99.90;;;;;;5058187;28;20047;-76
2021/10/31 04:07:47;;;;;;;17.65;10.40;;;10.90;99.90;;;;;;5060042;28;20029;-78
2021/10/31 04:10:12;;;;;;;18.47;10.57;;;10.90;99.90;;;;;;5064440;28;20021;-79
2021/10/31 04:12:38;;;;;;;17.98;10.75;;;10.90;99.90;;;;;;5047915;28;20475;-78
2021/10/31 04:15:05;;;;;;;17.08;9.82;;;10.90;99.90;;;;;;5046749;28;20354;-78
2021/10/31 04:17:31;;;;;;;17.27;10.37;;;11.00;99.90;;;;;;5051948;28;20033;-78
2021/10/31 04:19:57;;;;;;;17.92;9.75;;;10.90;99.90;;;;;;5035191;28;20052;-79
2021/10/31 04:22:22;;;;;;;18.63;10.30;;;10.90;99.90;;;;;;5052662;28;20070;-78
2021/10/31 04:24:48;;;;;;;17.92;10.05;;;11.10;99.90;;;;;;5036064;28;20504;-78
2021/10/31 04:27:14;;;;;;;16.42;9.63;;;10.90;99.90;;;;;;5035896;28;20045;-78
2021/10/31 04:29:39;;;;;;;18.90;10.80;;;10.90;99.90;;;;;;5053579;28;20078;-79
2021/10/31 04:32:05;;;;;;;16.55;10.25;;;10.90;99.90;;;;;;5057542;28;20025;-78
2021/10/31 04:34:31;;;;;;;19.33;10.20;;;10.90;99.90;;;;;;5052232;28;20108;-77
2021/10/31 04:36:57;;;;;;;18.98;10.23;;;10.90;99.90;;;;;;5053653;28;20167;-76
2021/10/31 04:39:23;;;;;;;15.83;9.80;;;10.90;99.90;;;;;;5035640;28;20029;-77
2021/10/31 04:41:49;;;;;;;22.60;11.53;;;10.90;99.90;;;;;;5052205;28;20033;-77
2021/10/31 04:44:15;;;;;;;22.13;10.87;;;11.00;99.90;;;;;;5053629;28;20110;-77
2021/10/31 04:46:42;;;;;;;19.27;11.13;;;10.80;99.90;;;;;;5052274;28;20116;-77
2021/10/31 04:49:08;;;;;;;21.87;12.33;;;10.90;99.90;;;;;;5056261;28;20036;-77
2021/10/31 04:51:33;;;;;;;18.63;10.90;;;10.80;99.90;;;;;;5067045;28;20039;-78
2021/10/31 04:53:59;;;;;;;18.50;11.53;;;10.80;99.90;;;;;;5053284;28;20473;-77
2021/10/31 04:56:25;;;;;;;18.27;11.17;;;10.80;99.90;;;;;;5035381;28;20151;-78
2021/10/31 04:58:52;;;;;;;19.63;10.82;;;10.80;99.90;;;;;;5051843;28;20025;-79
2021/10/31 05:01:18;;;;;;;18.85;11.10;;;10.80;99.90;;;;;;5053341;28;20025;-78
2021/10/31 05:03:44;;;;;;;19.70;10.67;;;10.80;99.90;;;;;;5052051;28;20078;-78
2021/10/31 05:06:11;;;;;;;19.37;11.53;;;10.80;99.90;;;;;;5053058;28;20025;-78
2021/10/31 05:08:36;;;;;;;18.87;12.17;;;10.60;99.90;;;;;;5051896;28;20021;-79
2021/10/31 05:11:03;;;;;;;22.87;11.90;;;10.80;99.90;;;;;;5053133;28;20032;-79
2021/10/31 05:13:29;;;;;;;22.33;11.70;;;10.70;99.90;;;;;;5059914;28;20020;-79
2021/10/31 05:15:54;;;;;;;16.53;11.40;;;10.70;99.90;;;;;;5062777;28;20461;-78
2021/10/31 05:18:20;;;;;;;17.90;11.57;;;10.70;99.90;;;;;;5035106;28;20067;-79
2021/10/31 05:20:45;;;;;;;20.53;11.23;;;10.70;99.90;;;;;;5051953;28;20052;-79
2021/10/31 05:23:11;;;;;;;19.77;12.67;;;10.70;99.90;;;;;;5062494;28;20032;-78
2021/10/31 05:25:37;;;;;;;21.63;13.13;;;10.70;99.90;;;;;;5072221;28;20064;-78
2021/10/31 05:28:02;;;;;;;20.30;12.13;;;10.70;99.90;;;;;;5072102;28;20025;-78
2021/10/31 05:30:28;;;;;;;19.17;12.37;;;10.60;99.90;;;;;;5073401;28;20078;-78
2021/10/31 05:32:54;;;;;;;18.97;11.50;;;10.70;99.90;;;;;;5071897;28;20029;-78
2021/10/31 05:35:20;;;;;;;20.10;12.87;;;10.60;99.90;;;;;;5073032;28;20090;-75
2021/10/31 05:37:46;;;;;;;22.58;11.98;;;10.60;99.90;;;;;;5073353;28;20063;-77
2021/10/31 05:40:16;;;;;;;19.63;12.20;;;10.60;99.90;;;;;;5071786;28;20025;-78
2021/10/31 05:42:43;;;;;;;19.10;12.23;;;10.60;99.90;;;;;;5051519;28;20055;-77
2021/10/31 05:45:10;;;;;;;19.73;12.13;;;10.60;99.90;;;;;;5035199;28;20021;-78
2021/10/31 05:47:37;;;;;;;19.30;11.67;;;10.60;99.90;;;;;;5052996;28;20032;-78
2021/10/31 05:50:05;;;;;;;19.40;12.77;;;10.60;99.90;;;;;;5051667;28;20135;-78
2021/10/31 05:52:31;;;;;;;19.80;11.87;;;10.60;99.90;;;;;;5055232;28;20074;-76
2021/10/31 05:54:59;;;;;;;19.50;12.53;;;10.50;99.90;;;;;;5055989;28;20112;-78
2021/10/31 05:57:26;;;;;;;20.73;12.57;;;10.50;99.90;;;;;;5057117;28;20512;-79
2021/10/31 05:59:51;;;;;;;19.23;12.40;;;10.60;99.90;;;;;;5063010;28;20016;-80
2021/10/31 06:02:17;;;;;;;19.87;11.80;;;10.60;99.90;;;;;;5054992;28;20024;-78
2021/10/31 06:04:45;;;;;;;19.97;12.20;;;10.50;99.90;;;;;;5053833;28;20420;-79
2021/10/31 06:07:10;;;;;;;20.42;13.30;;;10.60;99.90;;;;;;5037047;28;20029;-78
2021/10/31 06:09:36;;;;;;;21.27;13.20;;;10.60;99.90;;;;;;5056340;28;20029;-78
2021/10/31 06:12:07;;;;;;;20.13;12.17;;;10.60;99.90;;;;;;5056163;28;20028;-78
2021/10/31 06:14:34;;;;;;;22.07;12.07;;;10.60;99.90;;;;;;5054953;28;20043;-78
2021/10/31 06:17:04;;;;;;;18.58;11.90;;;10.60;99.90;;;;;;5054886;28;20047;-78
2021/10/31 06:19:33;;;;;;;21.33;12.67;;;10.60;99.90;;;;;;5056015;28;20116;-79
2021/10/31 06:21:59;;;;;;;21.37;12.93;;;10.60;99.90;;;;;;5054870;28;20063;-78
2021/10/31 06:24:25;;;;;;;17.97;11.67;;;10.60;99.90;;;;;;5056084;28;20037;-78
2021/10/31 06:26:50;;;;;;;24.43;12.83;;;10.60;99.90;;;;;;5054781;28;20043;-78
2021/10/31 06:29:16;;;;;;;21.37;13.13;;;10.60;99.90;;;;;;5054938;28;20033;-78
2021/10/31 06:31:42;;;;;;;21.03;13.27;;;10.60;99.90;;;;;;5055677;28;20029;-78
2021/10/31 06:34:07;;;;;;;22.93;13.63;;;10.60;99.90;;;;;;5055932;28;20381;-79
2021/10/31 06:36:33;;;;;;;18.53;12.50;;;10.60;99.90;;;;;;5040204;28;20389;-79
2021/10/31 06:38:59;;;;;;;23.30;14.40;;;10.50;99.90;;;;;;5054595;28;20032;-79
2021/10/31 06:41:24;;;;;;;24.03;13.23;;;10.60;99.90;;;;;;5037952;28;20060;-77
2021/10/31 06:43:50;;;;;;;23.47;14.10;;;10.60;99.90;;;;;;5054548;28;20503;-77
2021/10/31 06:46:16;;;;;;;21.23;13.77;;;10.60;99.90;;;;;;5037499;28;20457;-78
2021/10/31 06:48:42;;;;;;;22.20;13.73;;;10.50;99.90;;;;;;5070140;28;20043;-78
2021/10/31 06:51:07;;;;;;;21.80;14.83;;;10.60;99.90;;;;;;5075253;28;20039;-78
2021/10/31 06:53:33;;;;;;;21.77;13.43;;;10.50;99.80;;;;;;5072862;28;20443;-78
2021/10/31 06:56:00;;;;;;;20.60;13.67;;;10.60;99.80;;;;;;5074472;28;20029;-77
2021/10/31 06:58:26;;;;;;;21.90;14.07;;;10.40;99.80;;;;;;5075131;28;20036;-77
2021/10/31 07:00:51;;;;;;;26.43;15.17;;;10.60;99.90;;;;;;5057579;28;20032;-77
2021/10/31 07:03:17;;;;;;;25.33;14.73;;;10.50;99.80;;;;;;5074150;28;20032;-78
2021/10/31 07:05:43;;;;;;;21.70;14.07;;;10.50;99.80;;;;;;5074636;28;20426;-78
2021/10/31 07:08:08;;;;;;;21.13;14.93;;;10.40;99.80;;;;;;5075618;28;20029;-78
2021/10/31 07:10:34;;;;;;;22.37;15.07;;;10.50;99.90;;;;;;5074533;28;20071;-78
2021/10/31 07:13:00;;;;;;;21.47;14.73;;;10.50;99.90;;;;;;5067345;28;20432;-78
2021/10/31 07:15:25;;;;;;;23.07;14.13;;;10.60;99.90;;;;;;5061762;28;20060;-79
2021/10/31 07:17:52;;;;;;;21.80;14.33;;;10.60;99.90;;;;;;5065246;28;20029;-78
2021/10/31 07:20:18;;;;;;;22.07;13.77;;;10.60;99.90;;;;;;5053764;28;20060;-78
2021/10/31 07:22:44;;;;;;;22.83;14.37;;;10.60;99.90;;;;;;5054552;28;20033;-77
2021/10/31 07:25:10;;;;;;;22.13;13.93;;;10.60;99.90;;;;;;5054224;28;20051;-78
2021/10/31 07:27:36;;;;;;;23.70;13.30;;;10.60;99.90;;;;;;5056298;28;20044;-78
2021/10/31 07:30:03;;;;;;;21.97;14.10;;;10.50;99.90;;;;;;5074989;28;20020;-78
2021/10/31 07:32:28;;;;;;;21.70;13.50;;;10.60;99.90;;;;;;5073768;28;20025;-78
2021/10/31 07:34:54;;;;;;;20.60;12.37;;;10.70;99.90;;;;;;5039960;28;20115;-78
2021/10/31 07:37:20;;;;;;;18.10;12.67;;;10.70;99.90;;;;;;5054008;28;20032;-79
2021/10/31 07:39:48;;;;;;;18.27;12.37;;;10.80;99.90;;;;;;5055081;28;20029;-80
2021/10/31 07:42:14;;;;;;;22.17;13.67;;;10.80;99.90;;;;;;5053656;28;20120;-80
2021/10/31 07:44:42;;;;;;;19.60;12.53;;;11.00;99.90;;;;;;5054675;28;20522;-79
2021/10/31 07:47:08;;;;;;;20.17;13.40;;;10.90;99.90;;;;;;5054177;28;20044;-78
2021/10/31 07:49:34;;;;;;;18.88;12.40;;;10.90;99.90;;;;;;5053639;28;20470;-78
2021/10/31 07:51:59;;;;;;;19.67;12.60;;;11.00;99.90;;;;;;5053692;28;20136;-76
2021/10/31 07:54:26;;;;;;;18.97;12.10;;;11.00;99.90;;;;;;5054544;28;20028;-76
2021/10/31 07:56:56;;;;;;;21.40;12.23;;;11.00;99.90;;;;;;5043029;28;20460;-76
2021/10/31 07:59:22;;;;;;;18.48;11.57;;;11.10;99.90;;;;;;5054527;28;20036;-78
2021/10/31 08:01:48;;;;;;;17.45;11.52;;;11.10;99.90;;;;;;5037189;28;20036;-78
2021/10/31 08:04:14;;;;;;;16.98;11.80;;;11.10;99.90;;;;;;5053295;28;20033;-78
2021/10/31 08:06:40;;;;;;;18.92;12.18;;;11.20;99.90;;;;;;5053143;28;20029;-78
2021/10/31 08:09:05;;;;;;;18.30;12.27;;;11.30;99.90;;;;;;5036402;28;20025;-78
2021/10/31 08:11:31;;;;;;;18.52;12.48;;;11.20;99.90;;;;;;5053145;28;20037;-78
2021/10/31 08:13:56;;;;;;;19.80;12.10;;;11.30;99.90;;;;;;5036003;28;20029;-78
2021/10/31 08:16:24;;;;;;;18.67;10.77;;;11.40;99.90;;;;;;5069355;28;20035;-78
2021/10/31 08:18:50;;;;;;;18.67;10.30;;;11.50;99.90;;;;;;5053071;28;20031;-78
2021/10/31 08:21:16;;;;;;;15.32;9.20;;;11.50;99.90;;;;;;5052813;28;20080;-78
2021/10/31 08:23:42;;;;;;;14.23;9.65;;;11.50;99.90;;;;;;5036097;28;20507;-79
2021/10/31 08:26:08;;;;;;;13.75;9.77;;;11.60;99.90;;;;;;5036063;28;20091;-79
2021/10/31 08:28:37;;;;;;;14.60;8.45;;;11.70;99.90;;;;;;5052706;28;20087;-81
2021/10/31 08:31:03;;;;;;;11.02;7.30;;;11.80;99.90;;;;;;5052490;28;20024;-80
2021/10/31 08:33:34;;;;;;;13.10;8.45;;;11.80;99.90;;;;;;5052574;28;20144;-81
2021/10/31 08:36:00;;;;;;;11.73;7.43;;;11.90;99.90;;;;;;5060474;28;20029;-80
2021/10/31 08:38:26;;;;;;;8.93;6.97;;;11.90;99.90;;;;;;5069017;28;20040;-77
2021/10/31 08:40:54;;;;;;;10.68;6.32;;;12.00;99.90;;;;;;5052958;28;20040;-77
2021/10/31 08:43:21;;;;;;;14.30;6.95;;;12.10;99.90;;;;;;5070507;28;20028;-77
2021/10/31 08:45:47;;;;;;;12.30;6.32;;;12.20;99.90;;;;;;5062788;28;20025;-79
2021/10/31 08:48:14;;;;;;;11.00;6.45;;;12.20;99.90;;;;;;5073914;28;20060;-76
2021/10/31 08:50:40;;;;;;;9.43;6.45;;;12.30;99.90;;;;;;5072192;28;20029;-77
2021/10/31 08:53:07;;;;;;;9.90;6.00;;;12.40;99.80;;;;;;5067598;28;20032;-77
2021/10/31 08:55:33;;;;;;;10.75;6.55;;;12.50;99.60;;;;;;5068923;28;20025;-78
2021/10/31 08:57:59;;;;;;;10.13;6.25;;;12.50;99.40;;;;;;5052398;28;20032;-78
2021/10/31 09:00:26;;;;;;;9.52;6.38;;;12.50;99.30;;;;;;5068961;28;20036;-79
2021/10/31 09:02:52;;;;;;;9.40;6.38;;;12.50;99.00;;;;;;5053861;28;20053;-78
2021/10/31 09:05:18;;;;;;;9.77;5.72;;;12.60;98.80;;;;;;5055217;28;20396;-77
2021/10/31 09:07:44;;;;;;;8.98;5.78;;;12.60;98.70;;;;;;5072205;28;20052;-74
2021/10/31 09:10:10;;;;;;;9.50;4.88;;;12.60;98.50;;;;;;5055631;28;20035;-81
2021/10/31 09:12:35;;;;;;;7.97;5.50;;;12.70;98.40;;;;;;5071939;28;20021;-80
2021/10/31 09:15:01;;;;;;;8.55;4.88;;;12.70;98.30;;;;;;5055640;28;20078;-80
2021/10/31 09:17:26;;;;;;;7.82;4.80;;;12.70;98.30;;;;;;5072503;28;20476;-79
2021/10/31 09:19:52;;;;;;;7.20;3.85;;;12.80;98.30;;;;;;5073244;28;20055;-78
2021/10/31 09:22:18;;;;;;;7.20;4.25;;;13.00;98.40;;;;;;5049172;28;20048;-77
2021/10/31 09:24:43;;;;;;;9.98;3.75;;;13.10;98.40;;;;;;5052603;28;20040;-78
2021/10/31 09:27:09;;;;;;;5.03;3.30;;;13.30;98.10;;;;;;5020934;28;20508;-78
2021/10/31 09:29:35;;;;;;;6.25;3.38;;;13.40;98.30;;;;;;5055944;28;20082;-79
2021/10/31 09:32:01;;;;;;;6.88;2.83;;;13.60;97.60;;;;;;5039908;28;20033;-79
2021/10/31 09:34:29;;;;;;;5.82;2.75;;;13.90;97.30;;;;;;5039623;28;20112;-79
2021/10/31 09:36:56;;;;;;;4.57;2.33;;;14.10;97.40;;;;;;5057345;28;20029;-79
2021/10/31 09:39:22;;;;;;;4.10;1.98;;;14.30;97.10;;;;;;5056805;28;20494;-79
2021/10/31 09:41:49;;;;;;;3.55;1.88;;;14.50;96.80;;;;;;5039226;28;20068;-79
2021/10/31 09:44:29;;;;;;;3.25;2.05;;;14.80;96.60;;;;;;5056999;28;20106;-79
2021/10/31 09:46:56;;;;;;;3.47;1.40;;;15.00;96.10;;;;;;5056191;28;20032;-79
2021/10/31 09:49:22;;;;;;;3.92;1.70;;;15.40;95.70;;;;;;5045123;28;20028;-78
2021/10/31 09:51:51;;;;;;;6.18;1.67;;;15.80;94.90;;;;;;5073184;28;20071;-78
2021/10/31 09:54:17;;;;;;;4.50;1.60;;;16.20;94.70;;;;;;5055852;28;20024;-79
2021/10/31 09:56:43;;;;;;;4.55;1.40;;;16.60;94.20;;;;;;5056886;28;20017;-80
2021/10/31 09:59:11;;;;;;;3.70;1.23;;;17.20;93.50;;;;;;5056824;28;20035;-80
2021/10/31 10:04:25;;;;;;;2.53;1.15;;;18.00;92.50;;;;;;5056776;28;20489;-79
2021/10/31 10:06:52;;;;;;;2.28;0.90;;;18.40;92.00;;;;;;5056675;28;20389;-82
2021/10/31 10:09:18;;;;;;;2.58;1.10;;;18.80;91.00;;;;;;5055726;28;20053;-79
2021/10/31 10:11:45;;;;;;;3.75;1.00;;;19.20;90.30;;;;;;5038614;28;20033;-81
2021/10/31 10:14:23;;;;;;;2.40;0.98;;;19.50;87.90;;;;;;5056755;28;20025;-80
2021/10/31 10:16:49;;;;;;;2.90;1.10;;;19.70;86.00;;;;;;5055238;28;20426;-80
2021/10/31 10:19:33;;;;;;;2.47;1.17;;;19.90;84.10;;;;;;5055554;28;20090;-80
2021/10/31 10:22:02;;;;;;;;;;;20.10;82.00;;;;;;5055563;28;20029;-79
2021/10/31 10:24:32;;;;;;;2.10;1.02;;;20.20;79.70;;;;;;5055590;28;20372;-79
2021/10/31 10:27:02;;;;;;;2.72;0.90;;;20.40;80.80;;;;;;5055130;28;20021;-81
2021/10/31 10:29:33;;;;;;;1.90;0.70;;;20.70;79.90;;;;;;5055660;28;20032;-82
2021/10/31 10:32:08;;;;;;;2.53;0.80;;;21.20;79.00;;;;;;5056483;28;20017;-81
2021/10/31 10:34:43;;;;;;;2.05;0.68;;;21.70;74.80;;;;;;5055195;28;20076;-81
2021/10/31 10:37:14;;;;;;;1.50;0.77;;;21.90;72.60;;;;;;5060226;28;20071;-80
2021/10/31 10:39:41;;;;;;;2.22;0.60;;;22.00;70.20;;;;;;5070621;28;20083;-78
2021/10/31 10:42:08;;;;;;;1.75;0.80;;;22.00;67.90;;;;;;5055159;28;20025;-80
2021/10/31 10:44:39;;;;;;;2.58;0.82;;;21.80;65.30;;;;;;5056128;28;20075;-80
2021/10/31 10:47:18;;;;;;;1.50;0.80;;;21.40;64.10;;;;;;5054642;28;20024;-79
2021/10/31 10:49:48;;;;;;;1.55;0.70;;;21.20;64.70;;;;;;5054872;28;20480;-79
2021/10/31 10:52:24;;;;;;;1.92;0.90;;;21.00;64.60;;;;;;5056439;28;20055;-78
2021/10/31 10:54:55;;;;;;;2.30;0.68;;;21.00;65.70;;;;;;5055826;28;20573;-80
2021/10/31 10:57:23;;;;;;;1.25;0.57;;;21.20;65.80;;;;;;5055757;28;20107;-78
2021/10/31 10:59:58;;;;;;;1.73;0.70;;;21.40;65.40;;;;;;5055575;28;20032;-77
2021/10/31 11:02:26;;;;;;;1.60;0.57;;;21.60;65.00;;;;;;5054263;28;20021;-78
2021/10/31 11:05:00;;;;;;;1.33;0.50;;;21.80;65.60;;;;;;5054829;28;20473;-79
2021/10/31 11:07:47;;;;;;;2.63;0.50;;;22.10;65.30;;;;;;5054133;28;20449;-78
2021/10/31 11:10:20;;;;;;;1.65;0.50;;;22.50;64.10;;;;;;5054057;28;20477;-79
2021/10/31 11:12:48;;;;;;;2.20;0.57;;;22.70;63.50;;;;;;5075777;28;20384;-79
2021/10/31 11:15:22;;;;;;;4.07;0.75;;;22.80;62.40;;;;;;5074503;28;20031;-80
2021/10/31 11:17:48;;;;;;;;;;;22.80;62.00;;;;;;5074674;28;20020;-78
2021/10/31 11:20:18;;;;;;;1.48;0.47;;;22.80;60.30;;;;;;5075642;28;19916;-79
2021/10/31 11:22:47;;;;;;;1.95;0.47;;;22.90;61.20;;;;;;5074169;28;20492;-78
2021/10/31 11:25:16;;;;;;;1.17;0.50;;;23.00;60.40;;;;;;5073956;28;20020;-80
2021/10/31 11:27:42;;;;;;;2.33;0.50;;;23.20;60.30;;;;;;5073906;28;20024;-80
2021/10/31 11:30:09;;;;;;;0.77;0.40;;;23.40;59.80;;;;;;5075326;28;20029;-82
2021/10/31 11:32:37;;;;;;;1.75;0.50;;;23.30;58.70;;;;;;5075374;28;20048;-80
2021/10/31 11:35:03;;;;;;;2.67;0.60;;;23.00;57.30;;;;;;5073849;28;20029;-82
2021/10/31 11:37:40;;;;;;;2.15;0.50;;;22.50;57.70;;;;;;5057349;28;20086;-80
2021/10/31 11:40:07;;;;;;;2.03;0.60;;;22.10;58.50;;;;;;5073772;28;20016;-80
2021/10/31 11:42:47;;;;;;;3.20;0.60;;;21.80;59.30;;;;;;5074877;28;20055;-80
2021/10/31 11:45:16;;;;;;;3.25;0.82;;;21.50;59.90;;;;;;5074686;28;20076;-82
2021/10/31 11:48:03;;;;;;;2.88;1.00;;;21.10;60.50;;;;;;5073384;28;20020;-81
2021/10/31 11:50:29;;;;;;;3.30;0.63;;;20.80;61.20;;;;;;5071751;28;20032;-79
2021/10/31 11:53:00;;;;;;;2.35;0.85;;;20.40;62.00;;;;;;5073532;28;20375;-79
2021/10/31 11:55:29;;;;;;;4.35;1.05;;;20.10;62.80;;;;;;5074528;28;20366;-81
2021/10/31 11:57:59;;;;;;;3.85;0.80;;;19.80;63.70;;;;;;5073239;28;20070;-82
2021/10/31 12:00:25;;;;;;;3.80;1.20;;;19.60;64.50;;;;;;5072379;28;20031;-82
2021/10/31 12:03:01;;;;;;;2.28;0.95;;;19.40;65.20;;;;;;5052741;28;20036;-79
2021/10/31 12:05:38;;;;;;;2.70;1.17;;;19.10;65.90;;;;;;5069560;28;20064;-82
2021/10/31 12:08:51;;;;;;;3.38;0.90;;;18.90;66.60;;;;;;5057215;28;20530;-80
2021/10/31 12:11:17;;;;;;;1.95;0.68;;;18.70;67.60;;;;;;5069528;28;20040;-79
2021/10/31 12:13:47;;;;;;;3.72;0.80;;;18.50;68.70;;;;;;5072628;28;20107;-79
2021/10/31 12:16:18;;;;;;;3.40;1.02;;;18.40;69.00;;;;;;5056186;28;20453;-79
2021/10/31 12:18:56;;;;;;;2.78;0.77;;;18.30;69.60;;;;;;5073983;28;20039;-81
2021/10/31 12:21:26;;;;;;;1.75;0.80;;;18.20;70.10;;;;;;5072909;28;20581;-80
2021/10/31 12:24:01;;;;;;;2.22;0.88;;;18.10;70.70;;;;;;5056655;28;20112;-80
2021/10/31 12:26:38;;;;;;;4.28;1.13;;;17.90;71.10;;;;;;5072758;28;20397;-82
2021/10/31 12:29:30;;;;;;;4.05;1.20;;;17.90;71.70;;;;;;5072590;28;20063;-80
2021/10/31 12:32:04;;;;;;;2.33;1.13;;;17.80;72.50;;;;;;5070667;28;20033;-81
2021/10/31 12:34:40;;;;;;;4.60;0.75;;;17.70;72.80;;;;;;5067859;28;20034;-81
2021/10/31 12:37:26;;;;;;;3.38;0.93;;;17.70;73.10;;;;;;5053924;28;20057;-79
2021/10/31 12:40:11;;;;;;;4.03;0.90;;;17.70;73.70;;;;;;5052194;28;20056;-83
2021/10/31 12:42:46;;;;;;;5.10;1.10;;;17.70;74.20;;;;;;5074287;28;20055;-83
2021/10/31 12:45:20;;;;;;;3.35;0.90;;;17.70;74.50;;;;;;5073164;28;20020;-82
2021/10/31 12:47:56;;;;;;;2.38;0.80;;;17.70;74.80;;;;;;5073118;28;20020;-82